Portada
METAR-TAF:

METAR-TAF

Aeropuertos :

Muscatine, Iowa, Estados Unidos

latitud: 41-22N, longitud: 091-09W, altitud: 167 m

Observación

El informe se hizo hace 35 minutos, a las 19:15 UTC
Viento 3 kt del oeste
Temperatura 28°C
Humedad 62%
Presión 1022 hPa
Visibilidad: 16.1 km

METAR: KMUT 191915Z AUTO 27003KT 10SM 28/20 A3019 RMK AO2

Hora: 14:50 (19:50 UTC)


TAF: falta

Observaciones y pronósticos meteorológicos de más de 4000 aeropuertos (mensajes METAR y TAF).

Los puntos amarillos y rojos representan las estaciones disponibles.

Ponga el ratón en el punto deseado para ver el nombre de la estación.

Haga clic para ver las observaciones y los pronósticos meteorológicos.

Para cambiar el mapa : haga clic en los botones verdes con una cruz de color negro para hacer un zoom, en el botón verde con un guión para alejar o en las flechas verdes para mapas adyacentes.


METAR-TAF: